createdAt,value
2023-01-29T00:00:11.082Z,100950.81
2023-01-29T00:03:15.916Z,100945.75
2023-01-29T00:06:20.272Z,100946.66
2023-01-29T00:09:25.598Z,100946.66
2023-01-29T00:12:30.160Z,100944.25
2023-01-29T00:15:34.353Z,100947.75
2023-01-29T00:18:43.091Z,100951.91
2023-01-29T00:21:49.460Z,100956.41
2023-01-29T00:24:54.011Z,100953.94
2023-01-29T00:27:59.930Z,100965.91
2023-01-29T00:31:15.883Z,100964.25
2023-01-29T00:34:25.267Z,100970.38
2023-01-29T00:37:30.504Z,100975.72
2023-01-29T00:40:53.829Z,100971.44
2023-01-29T00:44:18.136Z,100978.25
2023-01-29T00:47:40.090Z,100972.22
2023-01-29T00:50:45.240Z,100966.41
2023-01-29T00:53:52.444Z,100975.75
2023-01-29T00:56:58.990Z,100976.69
2023-01-29T01:00:06.591Z,100978.34
2023-01-29T01:03:12.549Z,100979.34
2023-01-29T01:06:17.273Z,100976.16
2023-01-29T01:09:40.255Z,100978.88
2023-01-29T01:12:45.386Z,100978.94
2023-01-29T01:15:49.419Z,100975.72
2023-01-29T01:18:53.807Z,100968.84
2023-01-29T01:21:58.041Z,100964.75
2023-01-29T01:25:01.766Z,100979.59
2023-01-29T01:28:05.333Z,100977.25
2023-01-29T01:31:13.652Z,100979.13
2023-01-29T01:34:18.843Z,100980.06
2023-01-29T01:37:23.412Z,100979.37
2023-01-29T01:40:27.330Z,100982.87
2023-01-29T01:43:48.646Z,100992.22
2023-01-29T01:46:53.016Z,100993.81
2023-01-29T01:50:03.418Z,100992.97
2023-01-29T01:53:11.395Z,101000.72
2023-01-29T01:56:20.575Z,101006.00
2023-01-29T01:59:25.108Z,100993.22
2023-01-29T02:02:47.006Z,101003.56
2023-01-29T02:06:09.746Z,100996.75
2023-01-29T02:09:35.401Z,101001.22
2023-01-29T02:12:39.304Z,101001.25
2023-01-29T02:15:47.620Z,100997.94
2023-01-29T02:18:51.943Z,101006.47
2023-01-29T02:22:29.949Z,101000.63
2023-01-29T02:26:18.820Z,101006.66
2023-01-29T02:29:36.756Z,101009.22
2023-01-29T02:32:59.596Z,101013.50
2023-01-29T02:36:25.518Z,101011.94
2023-01-29T02:39:49.728Z,101020.47
2023-01-29T02:43:06.007Z,101015.44
2023-01-29T02:46:13.517Z,101018.00
2023-01-29T02:49:36.766Z,101018.91
2023-01-29T02:53:01.578Z,101030.97
2023-01-29T02:56:17.571Z,101031.03
2023-01-29T02:59:35.719Z,101034.53
2023-01-29T03:02:58.572Z,101031.13
2023-01-29T03:06:23.408Z,101032.81
2023-01-29T03:09:52.201Z,101032.84
2023-01-29T03:13:08.167Z,101029.41
2023-01-29T03:16:27.785Z,101035.31
2023-01-29T03:19:51.116Z,101041.28
2023-01-29T03:23:10.519Z,101036.94
2023-01-29T03:26:36.425Z,101034.28
2023-01-29T04:43:36.172Z,101051.09
2023-01-29T05:06:33.923Z,101057.06
2023-01-29T05:14:20.806Z,101047.53
2023-01-29T05:40:16.064Z,101058.66
2023-01-29T05:43:35.092Z,101053.53
2023-01-29T06:09:20.149Z,101062.75
2023-01-29T06:12:27.849Z,101074.50
2023-01-29T06:22:39.316Z,101084.03
2023-01-29T06:29:18.785Z,101094.69
2023-01-29T06:32:47.434Z,101099.78
2023-01-29T06:36:01.344Z,101111.06
2023-01-29T06:39:19.033Z,101113.84
2023-01-29T06:42:34.601Z,101110.44
2023-01-29T06:45:54.428Z,101112.22
2023-01-29T06:49:02.139Z,101123.28
2023-01-29T06:55:56.589Z,101122.56
2023-01-29T06:59:04.196Z,101132.66
2023-01-29T07:02:32.464Z,101127.56
2023-01-29T07:05:47.923Z,101125.19
2023-01-29T07:09:00.559Z,101117.31
2023-01-29T07:12:31.097Z,101112.28
2023-01-29T07:15:37.316Z,101124.31
2023-01-29T07:18:45.348Z,101121.66
2023-01-29T08:10:47.238Z,101102.06
2023-01-29T08:14:01.287Z,101103.72
2023-01-29T08:17:14.522Z,101106.03
2023-01-29T08:20:34.616Z,101112.22
2023-01-29T08:27:11.848Z,101115.41
2023-01-29T08:30:18.445Z,101123.91
2023-01-29T08:33:38.338Z,101127.88
2023-01-29T08:36:55.497Z,101128.47
2023-01-29T08:40:14.275Z,101129.84
2023-01-29T08:43:27.087Z,101134.87
2023-01-29T08:46:45.228Z,101140.34
2023-01-29T08:49:56.401Z,101148.97
2023-01-29T08:53:33.090Z,101154.44
2023-01-29T09:00:35.480Z,101167.62
2023-01-29T09:03:49.682Z,101165.78
2023-01-29T09:07:09.569Z,101168.41
2023-01-29T09:10:17.754Z,101174.47
2023-01-29T09:13:31.882Z,101171.69
2023-01-29T09:23:25.250Z,101180.25
2023-01-29T09:26:34.287Z,101170.00
2023-01-29T09:29:42.138Z,101179.72
2023-01-29T09:32:56.183Z,101176.06
2023-01-29T09:36:00.298Z,101173.88
2023-01-29T09:39:16.455Z,101188.78
2023-01-29T09:46:17.202Z,101186.84
2023-01-29T09:49:42.392Z,101183.97
2023-01-29T09:53:21.823Z,101194.13
2023-01-29T09:56:30.323Z,101192.06
2023-01-29T09:59:35.444Z,101187.09
2023-01-29T10:02:58.929Z,101189.53
2023-01-29T10:06:37.330Z,101193.91
2023-01-29T10:10:19.760Z,101189.53
2023-01-29T10:13:50.384Z,101187.53
2023-01-29T10:17:22.529Z,101188.09
2023-01-29T10:21:19.825Z,101196.69
2023-01-29T10:24:57.843Z,101193.78
2023-01-29T10:31:35.409Z,101176.25
2023-01-29T10:35:01.287Z,101184.88
2023-01-29T10:38:51.647Z,101189.03
2023-01-29T10:42:19.973Z,101188.16
2023-01-29T10:45:51.754Z,101186.28
2023-01-29T10:53:23.223Z,101167.00
2023-01-29T10:56:55.183Z,101162.63
2023-01-29T11:00:09.255Z,101166.81
2023-01-29T11:03:39.902Z,101145.69
2023-01-29T11:06:48.408Z,101137.66
2023-01-29T11:10:20.897Z,101134.84
2023-01-29T11:13:38.159Z,101135.47
2023-01-29T11:16:46.360Z,101128.87
2023-01-29T11:19:54.208Z,101128.37
2023-01-29T11:23:03.480Z,101132.56
2023-01-29T11:26:10.375Z,101129.84
2023-01-29T11:29:51.956Z,101112.28
2023-01-29T11:33:26.958Z,101113.09
2023-01-29T11:36:58.458Z,101121.69
2023-01-29T11:40:28.796Z,101096.72
2023-01-29T11:43:45.147Z,101108.84
2023-01-29T11:46:50.184Z,101100.47
2023-01-29T11:49:58.302Z,101086.56
2023-01-29T11:53:10.910Z,101086.28
2023-01-29T11:56:42.888Z,101078.50
2023-01-29T11:59:53.089Z,101074.19
2023-01-29T12:03:11.956Z,101076.00
2023-01-29T12:06:40.693Z,101073.78
2023-01-29T12:09:53.204Z,101077.66
2023-01-29T12:13:12.237Z,101077.59
2023-01-29T12:16:27.826Z,101082.38
2023-01-29T12:20:10.844Z,101071.88
2023-01-29T12:23:36.999Z,101068.97
2023-01-29T12:26:53.779Z,101064.66
2023-01-29T12:30:01.732Z,101067.81
2023-01-29T12:33:39.422Z,101065.00
2023-01-29T12:36:49.082Z,101068.63
2023-01-29T12:39:56.959Z,101061.28
2023-01-29T12:43:28.825Z,101073.34
2023-01-29T12:46:44.192Z,101077.81
2023-01-29T12:49:57.547Z,101077.37
2023-01-29T12:53:42.472Z,101060.97
2023-01-29T12:57:04.492Z,101070.13
2023-01-29T13:00:22.004Z,101070.81
2023-01-29T13:03:55.911Z,101048.44
2023-01-29T13:07:17.835Z,101052.69
2023-01-29T13:10:36.504Z,101041.69
2023-01-29T13:13:57.623Z,101048.81
2023-01-29T13:17:24.362Z,101040.06
2023-01-29T13:20:33.442Z,101031.53
2023-01-29T13:23:57.916Z,101019.66
2023-01-29T13:27:09.487Z,101027.44
2023-01-29T13:30:36.766Z,101013.81
2023-01-29T13:33:44.848Z,101008.62
2023-01-29T13:36:56.028Z,100995.44
2023-01-29T13:40:08.268Z,101005.56
2023-01-29T13:43:25.775Z,101006.00
2023-01-29T13:46:32.284Z,101009.47
2023-01-29T13:49:44.459Z,101018.22
2023-01-29T13:53:07.211Z,101019.84
2023-01-29T13:56:30.973Z,101019.13
2023-01-29T13:59:57.743Z,101011.56
2023-01-29T14:04:02.178Z,101009.16
2023-01-29T14:07:53.882Z,100996.50
2023-01-29T14:11:25.743Z,101001.69
2023-01-29T14:15:07.539Z,101011.66
2023-01-29T14:18:23.985Z,101011.47
2023-01-29T14:21:34.105Z,101019.00
2023-01-29T14:24:49.311Z,101017.28
2023-01-29T14:27:56.501Z,101018.59
2023-01-29T14:31:04.372Z,101021.09
2023-01-29T14:34:17.203Z,101012.91
2023-01-29T14:41:31.000Z,101018.09
2023-01-29T14:45:02.841Z,101019.97
2023-01-29T14:49:04.332Z,101018.41
2023-01-29T14:52:14.184Z,101013.94
2023-01-29T14:55:47.079Z,101013.94
2023-01-29T14:58:57.218Z,101020.09
2023-01-29T15:02:11.209Z,101021.75
2023-01-29T15:05:21.958Z,101016.69
2023-01-29T15:12:23.047Z,101013.44
2023-01-29T15:15:52.878Z,101019.56
2023-01-29T15:19:06.430Z,101009.41
2023-01-29T15:22:30.175Z,101004.41
2023-01-29T15:25:51.516Z,101004.47
2023-01-29T15:29:05.117Z,101006.06
2023-01-29T15:32:16.960Z,100998.44
2023-01-29T15:35:31.083Z,101007.22
2023-01-29T15:38:40.725Z,101003.84
2023-01-29T15:41:46.895Z,101008.22
2023-01-29T15:44:57.683Z,101004.91
2023-01-29T15:48:24.021Z,101012.66
2023-01-29T15:51:30.385Z,101003.34
2023-01-29T15:54:36.409Z,101015.34
2023-01-29T15:57:46.596Z,101010.19
2023-01-29T16:00:55.937Z,101014.53
2023-01-29T16:04:05.434Z,101023.16
2023-01-29T16:07:10.419Z,101021.44
2023-01-29T16:10:50.168Z,101020.69
2023-01-29T16:14:04.027Z,101019.84
2023-01-29T16:17:38.236Z,101019.09
2023-01-29T16:20:47.881Z,101024.25
2023-01-29T16:24:00.651Z,101028.41
2023-01-29T16:27:19.893Z,101026.72
2023-01-29T16:30:32.310Z,101038.72
2023-01-29T16:33:47.561Z,101043.84
2023-01-29T16:36:53.536Z,101052.38
2023-01-29T16:40:06.678Z,101055.00
2023-01-29T16:43:26.171Z,101054.13
2023-01-29T16:46:46.137Z,101057.63
2023-01-29T16:49:58.009Z,101052.56
2023-01-29T16:53:15.151Z,101053.41
2023-01-29T16:56:28.148Z,101061.91
2023-01-29T16:59:38.860Z,101061.91
2023-01-29T17:02:43.782Z,101055.97
2023-01-29T17:05:48.789Z,101058.41
2023-01-29T17:08:52.706Z,101063.63
2023-01-29T17:12:01.224Z,101061.91
2023-01-29T17:15:29.505Z,101052.59
2023-01-29T17:18:38.034Z,101055.97
2023-01-29T17:21:49.034Z,101052.53
2023-01-29T17:24:54.034Z,101045.72
2023-01-29T17:28:00.920Z,101054.25
2023-01-29T17:31:06.983Z,101050.03
2023-01-29T17:34:26.965Z,101052.59
2023-01-29T17:37:32.746Z,101048.38
2023-01-29T17:41:09.610Z,101039.88
2023-01-29T17:44:13.669Z,101030.53
2023-01-29T17:47:17.638Z,101027.22
2023-01-29T17:50:27.375Z,101023.78
2023-01-29T17:53:44.878Z,101028.03
2023-01-29T17:56:53.221Z,101027.25
2023-01-29T17:59:56.449Z,101018.72
2023-01-29T18:03:02.984Z,101005.88
2023-01-29T18:06:09.885Z,101006.78
2023-01-29T18:09:15.712Z,101009.44
2023-01-29T18:12:19.421Z,101006.91
2023-01-29T18:15:24.544Z,101002.69
2023-01-29T18:18:29.320Z,101004.38
2023-01-29T18:21:32.639Z,101000.16
2023-01-29T18:24:38.960Z,100999.31
2023-01-29T18:27:44.296Z,100995.94
2023-01-29T18:30:48.026Z,100991.69
2023-01-29T18:33:53.249Z,100983.16
2023-01-29T18:37:00.846Z,100981.53
2023-01-29T18:40:05.588Z,100984.09
2023-01-29T18:43:10.213Z,100985.03
2023-01-29T18:46:13.564Z,100984.22
2023-01-29T18:49:18.029Z,100986.72
2023-01-29T18:52:22.452Z,100986.78
2023-01-29T18:55:27.086Z,100990.19
2023-01-29T18:58:38.363Z,100990.22
2023-01-29T19:01:42.478Z,100996.19
2023-01-29T19:04:47.212Z,100993.66
2023-01-29T19:07:52.290Z,100985.97
2023-01-29T19:10:56.882Z,100987.66
2023-01-29T19:14:01.025Z,100991.09
2023-01-29T19:17:08.044Z,100986.91
2023-01-29T19:20:12.706Z,100981.78
2023-01-29T19:23:16.834Z,100978.34
2023-01-29T19:26:20.753Z,100980.03
2023-01-29T19:29:24.845Z,100973.16
2023-01-29T19:32:31.852Z,100973.16
2023-01-29T19:35:35.546Z,100979.09
2023-01-29T19:38:39.422Z,100980.84
2023-01-29T19:41:44.074Z,100973.97
2023-01-29T19:44:47.373Z,100970.62
2023-01-29T19:47:51.191Z,100967.16
2023-01-29T19:51:00.041Z,100958.69
2023-01-29T19:54:05.047Z,100960.38
2023-01-29T19:57:08.384Z,100964.62
2023-01-29T20:00:16.355Z,100958.69
2023-01-29T20:03:21.530Z,100969.78
2023-01-29T20:06:31.537Z,100962.87
2023-01-29T20:09:35.496Z,100970.53
2023-01-29T20:12:39.784Z,100957.75
2023-01-29T20:15:50.456Z,100961.19
2023-01-29T20:18:53.751Z,100961.19
2023-01-29T20:21:56.854Z,100965.41
2023-01-29T20:25:00.699Z,100956.06
2023-01-29T20:28:07.107Z,100959.53
2023-01-29T20:31:11.442Z,100943.34
2023-01-29T20:34:14.885Z,100949.31
2023-01-29T20:37:17.991Z,100946.78
2023-01-29T20:40:21.008Z,100939.16
2023-01-29T20:43:24.717Z,100935.72
2023-01-29T20:46:29.219Z,100942.47
2023-01-29T20:49:32.599Z,100937.28
2023-01-29T20:52:41.231Z,100933.97
2023-01-29T20:55:46.003Z,100929.78
2023-01-29T20:58:48.744Z,100939.16
2023-01-29T21:01:53.122Z,100944.22
2023-01-29T21:04:57.729Z,100948.53
2023-01-29T21:08:01.238Z,100952.75
2023-01-29T21:11:09.929Z,100951.91
2023-01-29T21:14:16.628Z,100964.72
2023-01-29T21:17:23.522Z,100958.78
2023-01-29T21:20:28.011Z,100955.41
2023-01-29T21:23:31.268Z,100963.91
2023-01-29T21:26:34.868Z,100964.69
2023-01-29T21:29:42.838Z,100969.84
2023-01-29T21:32:49.512Z,100974.97
2023-01-29T21:35:59.876Z,100973.22
2023-01-29T21:39:18.427Z,100971.47
2023-01-29T21:42:41.995Z,100980.06
2023-01-29T21:45:47.772Z,100965.59
2023-01-29T21:48:52.445Z,100969.91
2023-01-29T21:51:57.723Z,100969.91
2023-01-29T21:55:02.050Z,100969.97
2023-01-29T21:58:08.349Z,100958.91
2023-01-29T22:01:37.560Z,100958.91
2023-01-29T22:04:37.640Z,100960.59
2023-01-29T22:07:41.343Z,100961.47
2023-01-29T22:10:44.944Z,100942.78
2023-01-29T22:13:49.824Z,100952.13
2023-01-29T22:16:55.598Z,100942.75
2023-01-29T22:19:59.342Z,100932.56
2023-01-29T22:23:04.102Z,100935.97
2023-01-29T22:26:10.584Z,100927.44
2023-01-29T22:29:20.619Z,100924.84
2023-01-29T22:32:24.792Z,100923.97
2023-01-29T22:35:29.361Z,100915.41
2023-01-29T22:38:35.129Z,100917.12
2023-01-29T22:41:39.742Z,100915.34
2023-01-29T22:44:43.236Z,100905.13
2023-01-29T22:47:46.447Z,100892.34
2023-01-29T22:51:10.339Z,100899.09
2023-01-29T22:54:16.058Z,100900.03
2023-01-29T22:57:21.513Z,100899.22
2023-01-29T23:00:27.370Z,100892.38
2023-01-29T23:03:31.679Z,100890.63
2023-01-29T23:06:35.427Z,100886.38
2023-01-29T23:09:38.522Z,100885.59
2023-01-29T23:12:42.316Z,100887.38
2023-01-29T23:15:47.890Z,100885.66
2023-01-29T23:18:53.705Z,100886.53
2023-01-29T23:21:56.745Z,100880.56
2023-01-29T23:25:03.244Z,100874.63
2023-01-29T23:28:07.171Z,100881.44
2023-01-29T23:31:12.118Z,100869.50
2023-01-29T23:34:18.164Z,100869.59
2023-01-29T23:37:21.561Z,100866.31
2023-01-29T23:40:24.504Z,100858.69
2023-01-29T23:43:29.484Z,100851.88
2023-01-29T23:46:33.419Z,100853.66
2023-01-29T23:49:38.024Z,100850.19
2023-01-29T23:52:42.331Z,100846.87
2023-01-29T23:55:59.878Z,100846.91
2023-01-29T23:59:03.277Z,100852.94
